Tallahassee, Florida
Current Conditions -  °F | °C
As of 4:53 PM on Thursday 25 Dec 2014 (Local Time) from KTLH Reporting Station
Few Clouds Few Clouds  
Wind Chill: 60°   Ceiling: Unl
Heat Index: 60°   Visibility: 10mi
Dew Point: 36°   Wind: 6mph
Humidity: 41%   Direction: 360°N
Pressure: 30.2"   Gusts: NA
Location:  30.44°N, 84.28°W
Report Text: KTLH 252153Z 36005KT 10SM FEW250 16/02 A3020 RMK AO2 SLP226 T01560022 $
Loading
Personal Weather Stations






























Interactive Weather Map New forecast layout! Learn more

10-Day Weather Forecast

Advertisements
Track Severe Weather on mobile